Kezdőlap
METAR-TAF:

METAR-TAF

Repülőterek :

Kota Bharu, Malajzia

földrajzi szélesség: 06-10N, földrajzi hosszúság: 102-17E, magasság: 5 m

Jelenlegi meteorológiai megfigyelések

A jelentés 40 perccel ezelõtt készült, 01:00 UTC
Különbözõ irányokból fújó szél 2 kt
Hőmérséklet 28°C
Páratartalom 89%
Légköri nyomás 1010 hPa
Látótávolság: 9000 m
Kevés felhő 1800 lábon

METAR: WMKC 210100Z VRB02KT 9000 FEW018 28/26 Q1010

Idő: 09:40 (01:40 UTC)

Előrejelzés

A jelentés 2 órával és 40 perccel ezelõtt készült, 23:00 UTC
Az előrejelzés 21-én 00 óra UTC és 22-én 00 óra UTC között érvényes
Déli szél 5 kt
Látótávolság 10 km, vagy több
Kevés felhő 2000 lábon
21-én 06 óra UTC és 21-én 07 óra UTC között fokozatosan kialakuló
Kelet-északkeleti szél 7 kt

TAF: WMKC 202300Z 2100/2200 19005KT 9999 FEW020 BECMG 2106/2107 07007KT

Meteorológiai megfigyelések és előrejelzések több, mint 4000 repülőtéren (METAR és TAF jelentéseket).

A térképen piros és sárga pontok jelzik az elérhető meteorológiai állomásokat.

Mozgassa az egeret a pont fölött, hogy megjelenjen az állomás neve.

Azután kattintson az időjárási megfigyelések és előrejelzések megtekintéséhez.

A térkép megváltoztatása: kattintson a fekete keresztel jelölt zöld gombra ráközelítéshez, a vonallal jelölt zöld gombra távolításhoz, vagy a zöld nyilakra a szomszédos térképek eléréséhez.


METAR-TAF: